createdAt,value
2019-01-20T00:00:47.424Z,28.50
2019-01-20T00:05:53.667Z,29.07
2019-01-20T00:10:59.763Z,30.07
2019-01-20T00:16:06.197Z,30.70
2019-01-20T00:21:12.389Z,29.93
2019-01-20T00:26:18.539Z,36.03
2019-01-20T00:31:24.698Z,31.07
2019-01-20T00:36:30.766Z,30.53
2019-01-20T00:41:36.871Z,29.00
2019-01-20T00:46:43.038Z,28.97
2019-01-20T00:51:49.145Z,31.67
2019-01-20T00:56:55.169Z,30.90
2019-01-20T01:02:01.265Z,30.50
2019-01-20T01:07:07.648Z,28.47
2019-01-20T01:12:17.496Z,29.40
2019-01-20T01:17:23.677Z,33.83
2019-01-20T01:22:29.799Z,32.10
2019-01-20T01:27:35.821Z,35.37
2019-01-20T01:32:41.862Z,33.20
2019-01-20T01:37:48.891Z,29.77
2019-01-20T01:42:55.111Z,30.63
2019-01-20T01:48:01.229Z,30.67
2019-01-20T01:53:07.437Z,25.07
2019-01-20T01:58:13.412Z,23.10
2019-01-20T02:03:19.535Z,23.83
2019-01-20T02:08:25.632Z,24.67
2019-01-20T02:13:31.805Z,23.33
2019-01-20T02:18:37.916Z,24.47
2019-01-20T02:23:44.041Z,23.67
2019-01-20T02:28:50.232Z,27.53
2019-01-20T02:33:56.426Z,21.20
2019-01-20T02:39:02.533Z,22.43
2019-01-20T02:44:09.710Z,24.40
2019-01-20T02:49:15.799Z,25.33
2019-01-20T02:54:21.870Z,21.87
2019-01-20T02:59:28.053Z,21.23
2019-01-20T03:04:34.214Z,24.10
2019-01-20T03:09:40.181Z,24.50
2019-01-20T03:14:46.254Z,23.90
2019-01-20T03:19:52.358Z,23.50
2019-01-20T03:24:58.439Z,20.63
2019-01-20T03:30:05.330Z,23.07
2019-01-20T03:35:11.548Z,23.80
2019-01-20T03:40:18.455Z,19.33
2019-01-20T03:45:24.659Z,20.70
2019-01-20T03:50:30.846Z,20.10
2019-01-20T03:55:37.000Z,25.53
2019-01-20T04:00:43.172Z,23.53
2019-01-20T04:05:49.661Z,20.33
2019-01-20T04:10:55.730Z,20.67
2019-01-20T04:16:01.826Z,20.93
2019-01-20T04:21:07.775Z,16.70
2019-01-20T04:26:13.963Z,22.70
2019-01-20T04:31:20.094Z,17.43
2019-01-20T04:36:26.238Z,17.83
2019-01-20T04:41:32.304Z,19.43
2019-01-20T04:46:38.493Z,18.13
2019-01-20T04:51:44.607Z,24.00
2019-01-20T04:56:50.810Z,22.87
2019-01-20T05:01:56.897Z,21.97
2019-01-20T05:07:02.978Z,20.10
2019-01-20T05:12:09.112Z,22.83
2019-01-20T05:17:15.287Z,21.97
2019-01-20T05:22:21.341Z,24.30
2019-01-20T05:27:27.604Z,25.10
2019-01-20T05:32:33.735Z,20.43
2019-01-20T05:37:39.904Z,23.23
2019-01-20T05:42:46.716Z,22.30
2019-01-20T05:47:52.974Z,28.80
2019-01-20T05:52:59.130Z,24.67
2019-01-20T05:58:05.265Z,25.27
2019-01-20T06:03:11.509Z,23.93
2019-01-20T06:08:17.638Z,23.47
2019-01-20T06:13:23.611Z,25.13
2019-01-20T06:18:29.643Z,27.27
2019-01-20T06:23:35.826Z,24.00
2019-01-20T06:28:41.984Z,23.70
2019-01-20T06:34:06.847Z,23.20
2019-01-20T06:39:13.010Z,26.30
2019-01-20T06:44:19.065Z,24.40
2019-01-20T06:49:25.130Z,22.87
2019-01-20T06:54:31.141Z,22.70
2019-01-20T06:59:37.201Z,22.87
2019-01-20T07:04:43.341Z,24.70
2019-01-20T07:09:49.546Z,27.03
2019-01-20T07:14:55.608Z,22.13
2019-01-20T07:20:01.684Z,22.00
2019-01-20T07:25:08.107Z,25.17
2019-01-20T07:30:19.280Z,31.43
2019-01-20T07:35:25.415Z,26.10
2019-01-20T07:40:31.505Z,30.70
2019-01-20T07:45:37.591Z,34.77
2019-01-20T07:50:43.761Z,36.13
2019-01-20T07:55:50.988Z,67.13
2019-01-20T08:00:57.997Z,48.87
2019-01-20T08:06:04.235Z,41.80
2019-01-20T08:11:10.344Z,35.90
2019-01-20T08:16:16.424Z,25.60
2019-01-20T08:21:23.695Z,70.60
2019-01-20T08:26:29.869Z,77.13
2019-01-20T08:31:36.034Z,81.87
2019-01-20T08:36:42.024Z,53.30
2019-01-20T08:41:48.071Z,39.50
2019-01-20T08:47:30.835Z,42.67
2019-01-20T08:52:36.932Z,42.97
2019-01-20T08:57:42.989Z,51.37
2019-01-20T09:02:49.153Z,44.67
2019-01-20T09:07:55.309Z,42.40
2019-01-20T09:13:07.407Z,42.33
2019-01-20T09:18:13.737Z,39.77
2019-01-20T09:23:19.902Z,34.97
2019-01-20T09:28:25.985Z,33.67
2019-01-20T09:33:33.541Z,40.27
2019-01-20T09:38:39.735Z,38.83
2019-01-20T09:43:47.389Z,39.27
2019-01-20T09:48:53.950Z,38.87
2019-01-20T09:54:00.805Z,37.53
2019-01-20T09:59:07.011Z,41.00
2019-01-20T10:04:13.108Z,37.93
2019-01-20T10:09:19.191Z,39.23
2019-01-20T10:14:25.270Z,50.20
2019-01-20T10:19:31.438Z,39.30
2019-01-20T10:24:37.575Z,41.30
2019-01-20T10:29:43.802Z,37.63
2019-01-20T10:34:51.066Z,31.80
2019-01-20T10:39:57.342Z,34.83
2019-01-20T10:45:03.837Z,34.63
2019-01-20T10:50:11.063Z,32.23
2019-01-20T10:55:17.156Z,33.93
2019-01-20T11:00:25.674Z,39.60
2019-01-20T11:05:32.825Z,34.87
2019-01-20T11:10:39.962Z,36.73
2019-01-20T11:15:46.442Z,37.83
2019-01-20T11:20:52.610Z,40.53
2019-01-20T11:25:58.673Z,36.47
2019-01-20T11:31:04.778Z,39.37
2019-01-20T11:36:10.940Z,41.27
2019-01-20T11:41:17.209Z,39.10
2019-01-20T11:46:23.431Z,36.57
2019-01-20T11:51:29.592Z,39.80
2019-01-20T11:56:36.648Z,34.33
2019-01-20T12:01:42.844Z,37.13
2019-01-20T12:06:48.944Z,35.37
2019-01-20T12:12:05.686Z,34.83
2019-01-20T12:17:12.097Z,33.43
2019-01-20T12:22:18.212Z,33.30
2019-01-20T12:27:24.353Z,35.07
2019-01-20T12:32:30.642Z,31.00
2019-01-20T12:37:36.909Z,30.20
2019-01-20T12:42:43.144Z,31.13
2019-01-20T12:47:49.326Z,33.37
2019-01-20T12:52:55.550Z,32.60
2019-01-20T12:58:01.658Z,38.33
2019-01-20T13:03:08.701Z,43.57
2019-01-20T13:08:14.880Z,28.03
2019-01-20T13:13:20.932Z,30.93
2019-01-20T13:18:27.153Z,30.87
2019-01-20T13:23:33.260Z,29.10
2019-01-20T13:28:39.419Z,31.87
2019-01-20T13:33:45.405Z,27.97
2019-01-20T13:38:51.585Z,27.17
2019-01-20T13:43:58.466Z,27.50
2019-01-20T13:49:04.736Z,28.53
2019-01-20T13:54:10.913Z,25.77
2019-01-20T13:59:17.043Z,28.30
2019-01-20T14:04:24.181Z,27.50
2019-01-20T14:09:30.265Z,29.43
2019-01-20T14:14:36.363Z,28.90
2019-01-20T14:19:42.546Z,29.13
2019-01-20T14:24:48.677Z,33.03
2019-01-20T14:29:54.826Z,30.23
2019-01-20T14:35:02.141Z,28.40
2019-01-20T14:40:08.931Z,26.90
2019-01-20T14:45:16.774Z,27.67
2019-01-20T14:50:25.129Z,30.10
2019-01-20T14:55:31.167Z,30.03
2019-01-20T15:00:38.091Z,32.23
2019-01-20T15:05:44.260Z,31.60
2019-01-20T15:10:50.347Z,33.43
2019-01-20T15:15:56.406Z,31.53
2019-01-20T15:21:02.490Z,29.93
2019-01-20T15:26:08.652Z,33.70
2019-01-20T15:31:14.798Z,34.73
2019-01-20T15:36:21.010Z,32.17
2019-01-20T15:41:27.175Z,33.40
2019-01-20T15:46:33.269Z,32.27
2019-01-20T15:51:39.457Z,31.90
2019-01-20T15:56:45.528Z,30.83
2019-01-20T16:01:51.683Z,37.40
2019-01-20T16:06:57.865Z,34.20
2019-01-20T16:12:05.053Z,40.07
2019-01-20T16:17:11.169Z,40.27
2019-01-20T16:22:17.313Z,41.50
2019-01-20T16:27:23.706Z,37.17
2019-01-20T16:32:31.381Z,38.83
2019-01-20T16:37:37.542Z,41.93
2019-01-20T16:42:43.673Z,35.83
2019-01-20T16:47:49.822Z,42.83
2019-01-20T16:52:56.136Z,42.80
2019-01-20T16:58:02.201Z,43.90
2019-01-20T17:03:08.357Z,43.67
2019-01-20T17:08:14.680Z,46.07
2019-01-20T17:13:20.764Z,52.93
2019-01-20T17:18:26.980Z,50.37
2019-01-20T17:23:33.191Z,53.97
2019-01-20T17:28:39.265Z,52.33
2019-01-20T17:33:45.366Z,55.30
2019-01-20T17:38:52.452Z,58.83
2019-01-20T17:43:58.539Z,54.33
2019-01-20T17:49:04.686Z,54.93
2019-01-20T17:54:10.846Z,57.47
2019-01-20T17:59:16.944Z,54.87
2019-01-20T18:04:23.031Z,49.57
2019-01-20T18:09:29.111Z,87.47
2019-01-20T18:14:35.347Z,51.33
2019-01-20T18:19:41.552Z,57.53
2019-01-20T18:24:47.655Z,65.77
2019-01-20T18:29:53.686Z,58.50
2019-01-20T18:34:59.844Z,50.90
2019-01-20T18:40:09.337Z,55.10
2019-01-20T18:45:17.468Z,64.33
2019-01-20T18:50:25.897Z,57.17
2019-01-20T18:55:31.983Z,57.00
2019-01-20T19:00:49.635Z,52.17
2019-01-20T19:05:55.794Z,54.47
2019-01-20T19:11:02.041Z,54.50
2019-01-20T19:16:09.054Z,54.13
2019-01-20T19:21:15.409Z,56.47
2019-01-20T19:26:21.706Z,48.73
2019-01-20T19:31:27.803Z,52.63
2019-01-20T19:36:34.093Z,56.53
2019-01-20T19:41:40.106Z,71.30
2019-01-20T19:46:46.285Z,67.07
2019-01-20T19:51:52.483Z,57.87
2019-01-20T19:56:58.556Z,49.63
2019-01-20T20:02:04.357Z,51.77
2019-01-20T20:07:10.333Z,68.20
2019-01-20T20:12:16.380Z,92.60
2019-01-20T20:17:22.458Z,69.73
2019-01-20T20:22:28.552Z,67.83
2019-01-20T20:27:34.747Z,56.27
2019-01-20T20:32:41.898Z,57.10
2019-01-20T20:37:48.153Z,64.03
2019-01-20T20:42:54.360Z,66.20
2019-01-20T20:48:00.811Z,59.67
2019-01-20T20:53:07.194Z,58.17
2019-01-20T20:58:13.386Z,69.47
2019-01-20T21:03:24.922Z,66.17
2019-01-20T21:08:31.240Z,57.47
2019-01-20T21:13:37.469Z,63.83
2019-01-20T21:18:43.705Z,69.07
2019-01-20T21:23:49.919Z,66.73
2019-01-20T21:28:56.036Z,67.33
2019-01-20T21:34:02.274Z,75.30
2019-01-20T21:39:09.476Z,84.47
2019-01-20T21:44:15.789Z,60.73
2019-01-20T21:49:22.526Z,56.47
2019-01-20T21:54:28.833Z,55.53
2019-01-20T21:59:35.001Z,60.60
2019-01-20T22:04:41.189Z,65.37
2019-01-20T22:09:53.725Z,68.00
2019-01-20T22:14:59.894Z,63.03
2019-01-20T22:20:06.685Z,62.57
2019-01-20T22:25:12.900Z,60.33
2019-01-20T22:30:28.736Z,65.37
2019-01-20T22:35:34.829Z,63.23
2019-01-20T22:40:40.974Z,57.17
2019-01-20T22:45:47.153Z,55.53
2019-01-20T22:50:53.267Z,69.53
2019-01-20T22:55:59.348Z,62.60
2019-01-20T23:01:15.437Z,62.97
2019-01-20T23:06:21.518Z,68.60
2019-01-20T23:11:27.784Z,65.47
2019-01-20T23:16:33.957Z,61.53
2019-01-20T23:21:40.054Z,63.07
2019-01-20T23:26:46.143Z,60.33
2019-01-20T23:31:52.309Z,59.13
2019-01-20T23:36:58.447Z,54.13
2019-01-20T23:42:04.483Z,52.93
2019-01-20T23:47:15.051Z,50.43
2019-01-20T23:52:18.334Z,51.40
2019-01-20T23:57:24.497Z,50.07
